sensor_id;sensor_type;location;lat;lon;timestamp;P1;durP1;ratioP1;P2;durP2;ratioP2
24216;SDS011;12356;49.386;8.688;2022-10-30T00:01:59;19.85;;;7.43;;
24216;SDS011;12356;49.386;8.688;2022-10-30T00:04:30;21.58;;;7.93;;
24216;SDS011;12356;49.386;8.688;2022-10-30T00:07:01;18.17;;;7.35;;
24216;SDS011;12356;49.386;8.688;2022-10-30T00:09:31;17.55;;;7.25;;
24216;SDS011;12356;49.386;8.688;2022-10-30T00:12:02;22.38;;;7.75;;
24216;SDS011;12356;49.386;8.688;2022-10-30T00:14:33;17.45;;;7.30;;
24216;SDS011;12356;49.386;8.688;2022-10-30T00:17:03;15.27;;;6.85;;
24216;SDS011;12356;49.386;8.688;2022-10-30T00:19:34;16.27;;;7.20;;
24216;SDS011;12356;49.386;8.688;2022-10-30T00:22:05;18.85;;;7.45;;
24216;SDS011;12356;49.386;8.688;2022-10-30T00:24:35;19.48;;;7.35;;
24216;SDS011;12356;49.386;8.688;2022-10-30T00:27:06;18.88;;;7.30;;
24216;SDS011;12356;49.386;8.688;2022-10-30T00:29:37;17.88;;;7.25;;
24216;SDS011;12356;49.386;8.688;2022-10-30T00:32:07;15.50;;;6.90;;
24216;SDS011;12356;49.386;8.688;2022-10-30T00:34:38;15.77;;;7.22;;
24216;SDS011;12356;49.386;8.688;2022-10-30T00:37:08;16.65;;;6.93;;
24216;SDS011;12356;49.386;8.688;2022-10-30T00:39:39;18.42;;;6.93;;
24216;SDS011;12356;49.386;8.688;2022-10-30T00:42:14;15.65;;;7.32;;
24216;SDS011;12356;49.386;8.688;2022-10-30T00:47:31;15.60;;;6.63;;
24216;SDS011;12356;49.386;8.688;2022-10-30T00:52:50;19.52;;;6.60;;
24216;SDS011;12356;49.386;8.688;2022-10-30T00:55:30;20.17;;;6.88;;
24216;SDS011;12356;49.386;8.688;2022-10-30T00:58:05;20.73;;;6.97;;
24216;SDS011;12356;49.386;8.688;2022-10-30T01:00:40;19.58;;;7.15;;
24216;SDS011;12356;49.386;8.688;2022-10-30T01:03:14;14.88;;;6.85;;
24216;SDS011;12356;49.386;8.688;2022-10-30T01:05:47;13.77;;;6.70;;
24216;SDS011;12356;49.386;8.688;2022-10-30T01:08:21;18.23;;;7.05;;
24216;SDS011;12356;49.386;8.688;2022-10-30T01:10:52;18.73;;;7.32;;
24216;SDS011;12356;49.386;8.688;2022-10-30T01:13:23;22.85;;;7.40;;
24216;SDS011;12356;49.386;8.688;2022-10-30T01:19:14;15.73;;;7.10;;
24216;SDS011;12356;49.386;8.688;2022-10-30T01:24:57;15.82;;;7.38;;
24216;SDS011;12356;49.386;8.688;2022-10-30T01:27:38;21.25;;;7.47;;
24216;SDS011;12356;49.386;8.688;2022-10-30T01:30:19;16.63;;;7.22;;
24216;SDS011;12356;49.386;8.688;2022-10-30T01:35:59;13.75;;;6.63;;
24216;SDS011;12356;49.386;8.688;2022-10-30T01:38:46;13.45;;;6.70;;
24216;SDS011;12356;49.386;8.688;2022-10-30T01:41:23;16.83;;;6.32;;
24216;SDS011;12356;49.386;8.688;2022-10-30T01:43:55;17.48;;;6.82;;
24216;SDS011;12356;49.386;8.688;2022-10-30T02:00:54;22.33;;;6.60;;
24216;SDS011;12356;49.386;8.688;2022-10-30T02:03:27;14.18;;;6.38;;
24216;SDS011;12356;49.386;8.688;2022-10-30T02:05:58;16.05;;;5.88;;
24216;SDS011;12356;49.386;8.688;2022-10-30T02:08:29;16.85;;;6.47;;
24216;SDS011;12356;49.386;8.688;2022-10-30T02:10:59;18.88;;;6.90;;
24216;SDS011;12356;49.386;8.688;2022-10-30T02:13:31;16.88;;;6.28;;
24216;SDS011;12356;49.386;8.688;2022-10-30T02:16:02;24.20;;;6.15;;
24216;SDS011;12356;49.386;8.688;2022-10-30T02:18:32;18.23;;;6.25;;
24216;SDS011;12356;49.386;8.688;2022-10-30T02:21:03;24.13;;;6.35;;
24216;SDS011;12356;49.386;8.688;2022-10-30T02:23:34;19.20;;;6.07;;
24216;SDS011;12356;49.386;8.688;2022-10-30T02:26:05;17.35;;;6.43;;
24216;SDS011;12356;49.386;8.688;2022-10-30T02:28:35;20.20;;;6.40;;
24216;SDS011;12356;49.386;8.688;2022-10-30T02:31:06;19.70;;;5.88;;
24216;SDS011;12356;49.386;8.688;2022-10-30T02:33:37;18.52;;;5.95;;
24216;SDS011;12356;49.386;8.688;2022-10-30T02:36:07;19.33;;;5.97;;
24216;SDS011;12356;49.386;8.688;2022-10-30T02:38:38;15.50;;;6.05;;
24216;SDS011;12356;49.386;8.688;2022-10-30T02:41:09;15.73;;;6.10;;
24216;SDS011;12356;49.386;8.688;2022-10-30T02:43:40;23.73;;;6.50;;
24216;SDS011;12356;49.386;8.688;2022-10-30T02:46:10;16.27;;;5.80;;
24216;SDS011;12356;49.386;8.688;2022-10-30T02:48:41;16.55;;;5.80;;
24216;SDS011;12356;49.386;8.688;2022-10-30T02:51:11;16.20;;;5.82;;
24216;SDS011;12356;49.386;8.688;2022-10-30T02:53:42;12.75;;;5.85;;
24216;SDS011;12356;49.386;8.688;2022-10-30T02:56:13;18.63;;;6.53;;
24216;SDS011;12356;49.386;8.688;2022-10-30T02:58:44;18.67;;;6.38;;
24216;SDS011;12356;49.386;8.688;2022-10-30T03:01:16;20.13;;;5.63;;
24216;SDS011;12356;49.386;8.688;2022-10-30T03:03:47;14.65;;;6.10;;
24216;SDS011;12356;49.386;8.688;2022-10-30T03:06:18;15.35;;;5.65;;
24216;SDS011;12356;49.386;8.688;2022-10-30T03:08:49;18.17;;;6.03;;
24216;SDS011;12356;49.386;8.688;2022-10-30T03:11:19;12.75;;;5.90;;
24216;SDS011;12356;49.386;8.688;2022-10-30T03:13:50;16.98;;;5.82;;
24216;SDS011;12356;49.386;8.688;2022-10-30T03:16:22;17.73;;;5.47;;
24216;SDS011;12356;49.386;8.688;2022-10-30T03:18:55;13.55;;;5.60;;
24216;SDS011;12356;49.386;8.688;2022-10-30T03:21:27;16.88;;;6.03;;
24216;SDS011;12356;49.386;8.688;2022-10-30T03:23:58;15.90;;;6.10;;
24216;SDS011;12356;49.386;8.688;2022-10-30T03:26:28;14.32;;;5.88;;
24216;SDS011;12356;49.386;8.688;2022-10-30T03:28:59;17.17;;;6.25;;
24216;SDS011;12356;49.386;8.688;2022-10-30T03:31:30;12.45;;;5.72;;
24216;SDS011;12356;49.386;8.688;2022-10-30T03:34:01;18.20;;;5.88;;
24216;SDS011;12356;49.386;8.688;2022-10-30T03:36:32;15.70;;;6.07;;
24216;SDS011;12356;49.386;8.688;2022-10-30T03:39:03;14.75;;;5.50;;
24216;SDS011;12356;49.386;8.688;2022-10-30T03:41:34;16.73;;;6.43;;
24216;SDS011;12356;49.386;8.688;2022-10-30T03:44:04;16.80;;;5.95;;
24216;SDS011;12356;49.386;8.688;2022-10-30T03:46:35;16.95;;;5.82;;
24216;SDS011;12356;49.386;8.688;2022-10-30T03:49:06;18.55;;;5.93;;
24216;SDS011;12356;49.386;8.688;2022-10-30T03:51:37;15.07;;;5.95;;
24216;SDS011;12356;49.386;8.688;2022-10-30T03:54:08;15.73;;;6.38;;
24216;SDS011;12356;49.386;8.688;2022-10-30T03:56:38;17.90;;;6.30;;
24216;SDS011;12356;49.386;8.688;2022-10-30T03:59:09;14.98;;;6.28;;
24216;SDS011;12356;49.386;8.688;2022-10-30T04:01:39;18.20;;;6.75;;
24216;SDS011;12356;49.386;8.688;2022-10-30T04:04:10;15.25;;;5.70;;
24216;SDS011;12356;49.386;8.688;2022-10-30T04:06:41;18.23;;;5.80;;
24216;SDS011;12356;49.386;8.688;2022-10-30T04:09:11;16.95;;;5.80;;
24216;SDS011;12356;49.386;8.688;2022-10-30T04:11:42;17.27;;;6.00;;
24216;SDS011;12356;49.386;8.688;2022-10-30T04:14:13;15.73;;;6.38;;
24216;SDS011;12356;49.386;8.688;2022-10-30T04:16:43;14.77;;;5.60;;
24216;SDS011;12356;49.386;8.688;2022-10-30T04:19:14;17.60;;;6.13;;
24216;SDS011;12356;49.386;8.688;2022-10-30T04:21:45;13.43;;;6.32;;
24216;SDS011;12356;49.386;8.688;2022-10-30T04:24:16;11.98;;;6.20;;
24216;SDS011;12356;49.386;8.688;2022-10-30T04:26:47;15.30;;;5.80;;
24216;SDS011;12356;49.386;8.688;2022-10-30T04:29:19;12.00;;;5.60;;
24216;SDS011;12356;49.386;8.688;2022-10-30T04:31:49;15.48;;;6.18;;
24216;SDS011;12356;49.386;8.688;2022-10-30T04:34:20;16.00;;;5.82;;
24216;SDS011;12356;49.386;8.688;2022-10-30T04:36:51;16.40;;;5.55;;
24216;SDS011;12356;49.386;8.688;2022-10-30T04:39:21;13.90;;;5.90;;
24216;SDS011;12356;49.386;8.688;2022-10-30T04:41:52;13.88;;;5.72;;
24216;SDS011;12356;49.386;8.688;2022-10-30T04:44:23;14.77;;;5.85;;
24216;SDS011;12356;49.386;8.688;2022-10-30T04:46:53;13.23;;;5.47;;
24216;SDS011;12356;49.386;8.688;2022-10-30T04:49:24;13.65;;;5.88;;
24216;SDS011;12356;49.386;8.688;2022-10-30T04:51:54;12.32;;;5.70;;
24216;SDS011;12356;49.386;8.688;2022-10-30T04:54:25;12.60;;;5.88;;
24216;SDS011;12356;49.386;8.688;2022-10-30T04:56:57;12.07;;;5.60;;
24216;SDS011;12356;49.386;8.688;2022-10-30T04:59:28;18.65;;;6.25;;
24216;SDS011;12356;49.386;8.688;2022-10-30T05:01:58;16.95;;;5.97;;
24216;SDS011;12356;49.386;8.688;2022-10-30T05:04:29;14.65;;;5.65;;
24216;SDS011;12356;49.386;8.688;2022-10-30T05:07:00;17.20;;;5.68;;
24216;SDS011;12356;49.386;8.688;2022-10-30T05:09:32;14.15;;;5.65;;
24216;SDS011;12356;49.386;8.688;2022-10-30T05:12:03;13.52;;;6.00;;
24216;SDS011;12356;49.386;8.688;2022-10-30T05:14:34;17.75;;;5.80;;
24216;SDS011;12356;49.386;8.688;2022-10-30T05:17:05;17.30;;;6.30;;
24216;SDS011;12356;49.386;8.688;2022-10-30T05:19:35;13.70;;;6.03;;
24216;SDS011;12356;49.386;8.688;2022-10-30T05:22:06;17.42;;;6.13;;
24216;SDS011;12356;49.386;8.688;2022-10-30T05:24:38;22.73;;;5.77;;
24216;SDS011;12356;49.386;8.688;2022-10-30T05:27:08;20.92;;;6.10;;
24216;SDS011;12356;49.386;8.688;2022-10-30T05:29:39;14.98;;;6.35;;
24216;SDS011;12356;49.386;8.688;2022-10-30T05:32:10;19.27;;;6.30;;
24216;SDS011;12356;49.386;8.688;2022-10-30T05:34:40;18.30;;;6.45;;
24216;SDS011;12356;49.386;8.688;2022-10-30T05:37:11;11.80;;;5.93;;
24216;SDS011;12356;49.386;8.688;2022-10-30T05:39:42;11.57;;;5.75;;
24216;SDS011;12356;49.386;8.688;2022-10-30T05:42:12;17.58;;;5.55;;
24216;SDS011;12356;49.386;8.688;2022-10-30T05:44:43;16.80;;;5.47;;
24216;SDS011;12356;49.386;8.688;2022-10-30T05:47:13;16.13;;;5.90;;
24216;SDS011;12356;49.386;8.688;2022-10-30T05:49:44;15.90;;;5.78;;
24216;SDS011;12356;49.386;8.688;2022-10-30T05:52:15;17.55;;;6.05;;
24216;SDS011;12356;49.386;8.688;2022-10-30T05:54:45;17.35;;;6.07;;
24216;SDS011;12356;49.386;8.688;2022-10-30T05:57:16;15.07;;;5.82;;
24216;SDS011;12356;49.386;8.688;2022-10-30T05:59:46;15.50;;;5.55;;
24216;SDS011;12356;49.386;8.688;2022-10-30T06:02:17;17.73;;;5.78;;
24216;SDS011;12356;49.386;8.688;2022-10-30T06:04:48;18.20;;;5.30;;
24216;SDS011;12356;49.386;8.688;2022-10-30T06:07:18;11.68;;;5.88;;
24216;SDS011;12356;49.386;8.688;2022-10-30T06:09:49;15.38;;;5.60;;
24216;SDS011;12356;49.386;8.688;2022-10-30T06:12:20;15.07;;;5.32;;
24216;SDS011;12356;49.386;8.688;2022-10-30T06:14:50;16.10;;;5.50;;
24216;SDS011;12356;49.386;8.688;2022-10-30T06:17:21;13.80;;;5.68;;
24216;SDS011;12356;49.386;8.688;2022-10-30T06:19:51;18.13;;;5.70;;
24216;SDS011;12356;49.386;8.688;2022-10-30T06:22:22;15.05;;;5.85;;
24216;SDS011;12356;49.386;8.688;2022-10-30T06:24:53;14.13;;;5.43;;
24216;SDS011;12356;49.386;8.688;2022-10-30T06:27:23;14.68;;;5.28;;
24216;SDS011;12356;49.386;8.688;2022-10-30T06:29:54;14.90;;;5.82;;
24216;SDS011;12356;49.386;8.688;2022-10-30T06:32:24;16.85;;;6.00;;
24216;SDS011;12356;49.386;8.688;2022-10-30T06:34:55;13.45;;;6.00;;
24216;SDS011;12356;49.386;8.688;2022-10-30T06:37:26;17.88;;;5.88;;
24216;SDS011;12356;49.386;8.688;2022-10-30T06:39:57;14.43;;;5.90;;
24216;SDS011;12356;49.386;8.688;2022-10-30T06:42:27;14.18;;;5.95;;
24216;SDS011;12356;49.386;8.688;2022-10-30T06:44:58;15.45;;;5.72;;
24216;SDS011;12356;49.386;8.688;2022-10-30T06:47:33;18.73;;;5.88;;
24216;SDS011;12356;49.386;8.688;2022-10-30T06:50:05;14.80;;;5.53;;
24216;SDS011;12356;49.386;8.688;2022-10-30T06:52:37;15.55;;;6.30;;
24216;SDS011;12356;49.386;8.688;2022-10-30T06:55:08;14.95;;;5.80;;
24216;SDS011;12356;49.386;8.688;2022-10-30T06:57:40;17.63;;;6.03;;
24216;SDS011;12356;49.386;8.688;2022-10-30T07:00:10;13.98;;;5.75;;
24216;SDS011;12356;49.386;8.688;2022-10-30T07:02:42;12.00;;;6.15;;
24216;SDS011;12356;49.386;8.688;2022-10-30T07:05:12;15.13;;;5.97;;
24216;SDS011;12356;49.386;8.688;2022-10-30T07:07:43;12.27;;;6.05;;
24216;SDS011;12356;49.386;8.688;2022-10-30T07:10:14;12.80;;;5.80;;
24216;SDS011;12356;49.386;8.688;2022-10-30T07:12:54;15.35;;;6.18;;
24216;SDS011;12356;49.386;8.688;2022-10-30T07:15:25;13.85;;;6.63;;
24216;SDS011;12356;49.386;8.688;2022-10-30T07:17:57;19.70;;;6.20;;
24216;SDS011;12356;49.386;8.688;2022-10-30T07:20:31;13.52;;;6.22;;
24216;SDS011;12356;49.386;8.688;2022-10-30T07:23:03;14.25;;;5.80;;
24216;SDS011;12356;49.386;8.688;2022-10-30T07:25:34;14.85;;;6.35;;
24216;SDS011;12356;49.386;8.688;2022-10-30T07:28:04;15.48;;;6.20;;
24216;SDS011;12356;49.386;8.688;2022-10-30T07:30:35;19.95;;;6.70;;
24216;SDS011;12356;49.386;8.688;2022-10-30T07:33:06;15.15;;;6.22;;
24216;SDS011;12356;49.386;8.688;2022-10-30T07:35:39;12.00;;;6.10;;
24216;SDS011;12356;49.386;8.688;2022-10-30T07:38:10;11.30;;;6.38;;
24216;SDS011;12356;49.386;8.688;2022-10-30T07:40:41;18.45;;;6.47;;
24216;SDS011;12356;49.386;8.688;2022-10-30T07:43:13;12.93;;;6.43;;
24216;SDS011;12356;49.386;8.688;2022-10-30T07:45:45;16.25;;;6.93;;
24216;SDS011;12356;49.386;8.688;2022-10-30T07:48:16;16.38;;;6.18;;
24216;SDS011;12356;49.386;8.688;2022-10-30T07:50:47;15.02;;;6.50;;
24216;SDS011;12356;49.386;8.688;2022-10-30T07:53:17;17.02;;;7.18;;
24216;SDS011;12356;49.386;8.688;2022-10-30T07:55:48;11.40;;;6.38;;
24216;SDS011;12356;49.386;8.688;2022-10-30T07:58:18;12.27;;;6.80;;
24216;SDS011;12356;49.386;8.688;2022-10-30T08:00:49;16.17;;;6.95;;
24216;SDS011;12356;49.386;8.688;2022-10-30T08:03:20;16.77;;;7.03;;
24216;SDS011;12356;49.386;8.688;2022-10-30T08:05:50;18.02;;;7.15;;
24216;SDS011;12356;49.386;8.688;2022-10-30T08:08:21;13.13;;;6.65;;
24216;SDS011;12356;49.386;8.688;2022-10-30T08:10:52;22.42;;;6.70;;
24216;SDS011;12356;49.386;8.688;2022-10-30T08:13:22;15.20;;;7.05;;
24216;SDS011;12356;49.386;8.688;2022-10-30T08:15:53;14.68;;;6.88;;
24216;SDS011;12356;49.386;8.688;2022-10-30T08:18:24;16.48;;;6.80;;
24216;SDS011;12356;49.386;8.688;2022-10-30T08:20:55;15.90;;;6.57;;
24216;SDS011;12356;49.386;8.688;2022-10-30T08:23:26;14.48;;;6.55;;
24216;SDS011;12356;49.386;8.688;2022-10-30T08:25:57;14.27;;;7.32;;
24216;SDS011;12356;49.386;8.688;2022-10-30T08:28:30;14.43;;;6.47;;
24216;SDS011;12356;49.386;8.688;2022-10-30T08:31:02;15.88;;;7.15;;
24216;SDS011;12356;49.386;8.688;2022-10-30T08:33:33;17.20;;;6.90;;
24216;SDS011;12356;49.386;8.688;2022-10-30T08:36:04;18.00;;;7.10;;
24216;SDS011;12356;49.386;8.688;2022-10-30T08:38:36;15.93;;;7.30;;
24216;SDS011;12356;49.386;8.688;2022-10-30T08:41:07;13.43;;;7.15;;
24216;SDS011;12356;49.386;8.688;2022-10-30T08:43:37;15.10;;;7.18;;
24216;SDS011;12356;49.386;8.688;2022-10-30T08:46:08;13.45;;;7.03;;
24216;SDS011;12356;49.386;8.688;2022-10-30T08:48:39;17.15;;;7.30;;
24216;SDS011;12356;49.386;8.688;2022-10-30T08:51:09;13.45;;;7.03;;
24216;SDS011;12356;49.386;8.688;2022-10-30T08:53:40;15.82;;;8.07;;
24216;SDS011;12356;49.386;8.688;2022-10-30T08:56:10;13.50;;;7.28;;
24216;SDS011;12356;49.386;8.688;2022-10-30T08:58:41;17.52;;;7.35;;
24216;SDS011;12356;49.386;8.688;2022-10-30T09:01:12;16.63;;;7.32;;
24216;SDS011;12356;49.386;8.688;2022-10-30T09:03:43;20.45;;;7.47;;
24216;SDS011;12356;49.386;8.688;2022-10-30T09:06:14;16.70;;;7.22;;
24216;SDS011;12356;49.386;8.688;2022-10-30T09:08:45;16.05;;;7.00;;
24216;SDS011;12356;49.386;8.688;2022-10-30T09:11:16;19.45;;;7.18;;
24216;SDS011;12356;49.386;8.688;2022-10-30T09:13:46;21.20;;;7.53;;
24216;SDS011;12356;49.386;8.688;2022-10-30T09:16:17;17.17;;;6.70;;
24216;SDS011;12356;49.386;8.688;2022-10-30T09:18:47;18.25;;;7.03;;
24216;SDS011;12356;49.386;8.688;2022-10-30T09:21:18;13.43;;;7.25;;
24216;SDS011;12356;49.386;8.688;2022-10-30T09:23:49;21.73;;;7.18;;
24216;SDS011;12356;49.386;8.688;2022-10-30T09:26:19;18.23;;;7.15;;
24216;SDS011;12356;49.386;8.688;2022-10-30T09:28:50;17.15;;;7.10;;
24216;SDS011;12356;49.386;8.688;2022-10-30T09:31:21;19.05;;;6.95;;
24216;SDS011;12356;49.386;8.688;2022-10-30T09:33:52;17.27;;;7.20;;
24216;SDS011;12356;49.386;8.688;2022-10-30T09:36:22;23.27;;;7.57;;
24216;SDS011;12356;49.386;8.688;2022-10-30T09:38:53;18.58;;;7.40;;
24216;SDS011;12356;49.386;8.688;2022-10-30T09:41:35;17.33;;;7.05;;
24216;SDS011;12356;49.386;8.688;2022-10-30T09:47:10;15.13;;;7.43;;
24216;SDS011;12356;49.386;8.688;2022-10-30T09:55:46;19.30;;;7.93;;
24216;SDS011;12356;49.386;8.688;2022-10-30T09:58:27;17.13;;;7.82;;
24216;SDS011;12356;49.386;8.688;2022-10-30T10:01:17;19.50;;;7.40;;
24216;SDS011;12356;49.386;8.688;2022-10-30T10:06:28;19.73;;;7.10;;
24216;SDS011;12356;49.386;8.688;2022-10-30T10:09:01;19.98;;;7.25;;
24216;SDS011;12356;49.386;8.688;2022-10-30T10:11:39;19.02;;;6.80;;
24216;SDS011;12356;49.386;8.688;2022-10-30T10:14:16;19.15;;;6.72;;
24216;SDS011;12356;49.386;8.688;2022-10-30T10:16:52;18.33;;;6.50;;
24216;SDS011;12356;49.386;8.688;2022-10-30T10:19:29;16.83;;;6.25;;
24216;SDS011;12356;49.386;8.688;2022-10-30T10:22:22;18.75;;;6.38;;
24216;SDS011;12356;49.386;8.688;2022-10-30T10:25:00;20.87;;;6.27;;
24216;SDS011;12356;49.386;8.688;2022-10-30T10:30:22;15.48;;;7.03;;
24216;SDS011;12356;49.386;8.688;2022-10-30T10:38:53;19.05;;;6.43;;
24216;SDS011;12356;49.386;8.688;2022-10-30T10:41:46;17.42;;;5.45;;
24216;SDS011;12356;49.386;8.688;2022-10-30T10:47:30;16.17;;;6.30;;
24216;SDS011;12356;49.386;8.688;2022-10-30T10:50:24;14.80;;;6.25;;
24216;SDS011;12356;49.386;8.688;2022-10-30T10:52:59;17.42;;;6.25;;
24216;SDS011;12356;49.386;8.688;2022-10-30T10:55:43;14.30;;;6.15;;
24216;SDS011;12356;49.386;8.688;2022-10-30T11:01:07;23.55;;;6.88;;
24216;SDS011;12356;49.386;8.688;2022-10-30T11:06:31;16.15;;;5.88;;
24216;SDS011;12356;49.386;8.688;2022-10-30T11:11:51;14.02;;;6.03;;
24216;SDS011;12356;49.386;8.688;2022-10-30T11:14:27;19.75;;;6.00;;
24216;SDS011;12356;49.386;8.688;2022-10-30T11:17:11;19.80;;;5.63;;
24216;SDS011;12356;49.386;8.688;2022-10-30T11:19:56;16.08;;;5.50;;
24216;SDS011;12356;49.386;8.688;2022-10-30T11:22:31;15.35;;;5.35;;
24216;SDS011;12356;49.386;8.688;2022-10-30T11:25:25;14.73;;;5.75;;
24216;SDS011;12356;49.386;8.688;2022-10-30T11:28:03;14.95;;;5.72;;
24216;SDS011;12356;49.386;8.688;2022-10-30T11:30:34;18.90;;;5.47;;
24216;SDS011;12356;49.386;8.688;2022-10-30T11:33:21;16.85;;;5.43;;
24216;SDS011;12356;49.386;8.688;2022-10-30T11:35:52;16.65;;;5.75;;
24216;SDS011;12356;49.386;8.688;2022-10-30T11:38:22;17.73;;;5.72;;
24216;SDS011;12356;49.386;8.688;2022-10-30T11:40:56;18.13;;;6.82;;
24216;SDS011;12356;49.386;8.688;2022-10-30T11:43:26;15.82;;;7.18;;
24216;SDS011;12356;49.386;8.688;2022-10-30T11:45:58;16.70;;;5.72;;
24216;SDS011;12356;49.386;8.688;2022-10-30T11:48:29;14.30;;;5.43;;
24216;SDS011;12356;49.386;8.688;2022-10-30T11:51:02;14.82;;;4.93;;
24216;SDS011;12356;49.386;8.688;2022-10-30T11:53:38;18.15;;;5.50;;
24216;SDS011;12356;49.386;8.688;2022-10-30T11:56:20;20.42;;;5.30;;
24216;SDS011;12356;49.386;8.688;2022-10-30T11:58:52;17.50;;;4.80;;
24216;SDS011;12356;49.386;8.688;2022-10-30T12:01:33;16.42;;;4.90;;
24216;SDS011;12356;49.386;8.688;2022-10-30T12:04:12;18.67;;;5.07;;
24216;SDS011;12356;49.386;8.688;2022-10-30T12:07:06;16.92;;;4.63;;
24216;SDS011;12356;49.386;8.688;2022-10-30T12:09:43;14.02;;;4.50;;
24216;SDS011;12356;49.386;8.688;2022-10-30T12:12:49;15.85;;;4.15;;
24216;SDS011;12356;49.386;8.688;2022-10-30T12:17:59;10.05;;;3.28;;
24216;SDS011;12356;49.386;8.688;2022-10-30T12:20:32;8.93;;;3.08;;
24216;SDS011;12356;49.386;8.688;2022-10-30T12:23:10;10.38;;;2.78;;
24216;SDS011;12356;49.386;8.688;2022-10-30T12:25:46;7.55;;;2.70;;
24216;SDS011;12356;49.386;8.688;2022-10-30T12:28:24;7.88;;;2.60;;
24216;SDS011;12356;49.386;8.688;2022-10-30T12:36:39;8.23;;;3.08;;
24216;SDS011;12356;49.386;8.688;2022-10-30T12:39:17;12.57;;;2.90;;
24216;SDS011;12356;49.386;8.688;2022-10-30T12:42:01;7.55;;;2.85;;
24216;SDS011;12356;49.386;8.688;2022-10-30T12:44:39;10.95;;;3.03;;
24216;SDS011;12356;49.386;8.688;2022-10-30T12:47:37;9.43;;;3.05;;
24216;SDS011;12356;49.386;8.688;2022-10-30T12:50:23;10.10;;;3.05;;
24216;SDS011;12356;49.386;8.688;2022-10-30T12:53:07;10.55;;;2.80;;
24216;SDS011;12356;49.386;8.688;2022-10-30T12:56:07;11.23;;;3.55;;
24216;SDS011;12356;49.386;8.688;2022-10-30T13:01:21;10.35;;;2.88;;
24216;SDS011;12356;49.386;8.688;2022-10-30T13:04:06;8.25;;;2.95;;
24216;SDS011;12356;49.386;8.688;2022-10-30T13:06:45;8.60;;;2.92;;
24216;SDS011;12356;49.386;8.688;2022-10-30T13:09:26;10.25;;;3.15;;
24216;SDS011;12356;49.386;8.688;2022-10-30T13:17:25;9.50;;;4.20;;
24216;SDS011;12356;49.386;8.688;2022-10-30T13:19:58;13.85;;;4.82;;
24216;SDS011;12356;49.386;8.688;2022-10-30T13:22:48;14.97;;;4.90;;
24216;SDS011;12356;49.386;8.688;2022-10-30T13:25:30;15.50;;;5.47;;
24216;SDS011;12356;49.386;8.688;2022-10-30T13:36:53;14.98;;;4.05;;
24216;SDS011;12356;49.386;8.688;2022-10-30T13:39:47;10.85;;;4.00;;
24216;SDS011;12356;49.386;8.688;2022-10-30T13:43:21;10.45;;;4.18;;
24216;SDS011;12356;49.386;8.688;2022-10-30T13:46:00;11.68;;;4.20;;
24216;SDS011;12356;49.386;8.688;2022-10-30T13:51:43;13.18;;;5.20;;
24216;SDS011;12356;49.386;8.688;2022-10-30T13:54:21;12.55;;;4.70;;
24216;SDS011;12356;49.386;8.688;2022-10-30T13:56:57;19.75;;;6.65;;
24216;SDS011;12356;49.386;8.688;2022-10-30T14:00:01;12.85;;;5.03;;
24216;SDS011;12356;49.386;8.688;2022-10-30T14:05:57;13.32;;;4.78;;
24216;SDS011;12356;49.386;8.688;2022-10-30T14:11:19;9.32;;;4.65;;
24216;SDS011;12356;49.386;8.688;2022-10-30T14:13:53;9.70;;;5.00;;
24216;SDS011;12356;49.386;8.688;2022-10-30T14:24:30;13.77;;;5.13;;
24216;SDS011;12356;49.386;8.688;2022-10-30T14:32:49;13.10;;;5.03;;
24216;SDS011;12356;49.386;8.688;2022-10-30T14:40:28;13.07;;;5.10;;
24216;SDS011;12356;49.386;8.688;2022-10-30T14:46:09;14.38;;;4.75;;
24216;SDS011;12356;49.386;8.688;2022-10-30T14:49:55;13.07;;;5.05;;
24216;SDS011;12356;49.386;8.688;2022-10-30T15:08:58;18.17;;;5.65;;
24216;SDS011;12356;49.386;8.688;2022-10-30T15:11:56;13.77;;;5.15;;
24216;SDS011;12356;49.386;8.688;2022-10-30T15:19:53;13.60;;;4.95;;
24216;SDS011;12356;49.386;8.688;2022-10-30T15:22:24;16.42;;;4.93;;
24216;SDS011;12356;49.386;8.688;2022-10-30T15:27:27;11.80;;;4.10;;
24216;SDS011;12356;49.386;8.688;2022-10-30T15:29:59;11.38;;;4.45;;
24216;SDS011;12356;49.386;8.688;2022-10-30T15:32:33;11.80;;;4.85;;
24216;SDS011;12356;49.386;8.688;2022-10-30T15:35:13;8.50;;;4.28;;
24216;SDS011;12356;49.386;8.688;2022-10-30T15:40:27;12.27;;;4.72;;
24216;SDS011;12356;49.386;8.688;2022-10-30T15:43:00;17.45;;;5.47;;
24216;SDS011;12356;49.386;8.688;2022-10-30T15:45:33;12.50;;;4.70;;
24216;SDS011;12356;49.386;8.688;2022-10-30T15:50:52;12.20;;;4.68;;
24216;SDS011;12356;49.386;8.688;2022-10-30T15:56:21;10.95;;;4.45;;
24216;SDS011;12356;49.386;8.688;2022-10-30T15:59:06;7.85;;;4.32;;
24216;SDS011;12356;49.386;8.688;2022-10-30T16:01:45;11.32;;;4.60;;
24216;SDS011;12356;49.386;8.688;2022-10-30T16:06:54;9.13;;;4.00;;
24216;SDS011;12356;49.386;8.688;2022-10-30T16:09:28;14.75;;;5.82;;
24216;SDS011;12356;49.386;8.688;2022-10-30T16:11:59;11.75;;;4.72;;
24216;SDS011;12356;49.386;8.688;2022-10-30T16:14:30;15.27;;;5.82;;
24216;SDS011;12356;49.386;8.688;2022-10-30T16:17:01;17.60;;;5.88;;
24216;SDS011;12356;49.386;8.688;2022-10-30T16:19:54;15.05;;;6.65;;
24216;SDS011;12356;49.386;8.688;2022-10-30T16:24:58;11.48;;;5.20;;
24216;SDS011;12356;49.386;8.688;2022-10-30T16:27:29;11.48;;;5.88;;
24216;SDS011;12356;49.386;8.688;2022-10-30T16:30:00;7.57;;;4.60;;
24216;SDS011;12356;49.386;8.688;2022-10-30T16:32:31;8.23;;;4.93;;
24216;SDS011;12356;49.386;8.688;2022-10-30T16:35:02;15.48;;;4.40;;
24216;SDS011;12356;49.386;8.688;2022-10-30T16:37:34;12.80;;;5.03;;
24216;SDS011;12356;49.386;8.688;2022-10-30T16:42:45;7.65;;;4.05;;
24216;SDS011;12356;49.386;8.688;2022-10-30T16:48:01;8.77;;;3.65;;
24216;SDS011;12356;49.386;8.688;2022-10-30T16:50:37;9.38;;;3.20;;
24216;SDS011;12356;49.386;8.688;2022-10-30T16:53:17;10.90;;;3.13;;
24216;SDS011;12356;49.386;8.688;2022-10-30T16:55:51;8.68;;;3.03;;
24216;SDS011;12356;49.386;8.688;2022-10-30T16:58:25;7.50;;;2.90;;
24216;SDS011;12356;49.386;8.688;2022-10-30T17:01:03;9.70;;;3.20;;
24216;SDS011;12356;49.386;8.688;2022-10-30T17:03:36;8.68;;;3.03;;
24216;SDS011;12356;49.386;8.688;2022-10-30T17:06:33;8.60;;;3.22;;
24216;SDS011;12356;49.386;8.688;2022-10-30T17:09:07;8.00;;;2.90;;
24216;SDS011;12356;49.386;8.688;2022-10-30T17:11:40;8.73;;;2.97;;
24216;SDS011;12356;49.386;8.688;2022-10-30T17:14:20;6.32;;;2.78;;
24216;SDS011;12356;49.386;8.688;2022-10-30T17:16:52;9.52;;;3.15;;
24216;SDS011;12356;49.386;8.688;2022-10-30T17:22:02;11.07;;;3.40;;
24216;SDS011;12356;49.386;8.688;2022-10-30T17:24:39;11.27;;;3.38;;
24216;SDS011;12356;49.386;8.688;2022-10-30T17:27:32;7.40;;;3.03;;
24216;SDS011;12356;49.386;8.688;2022-10-30T17:30:40;8.55;;;3.42;;
24216;SDS011;12356;49.386;8.688;2022-10-30T17:36:05;5.70;;;3.50;;
24216;SDS011;12356;49.386;8.688;2022-10-30T17:38:36;8.25;;;3.42;;
24216;SDS011;12356;49.386;8.688;2022-10-30T17:41:08;9.65;;;3.80;;
24216;SDS011;12356;49.386;8.688;2022-10-30T17:43:50;12.45;;;4.13;;
24216;SDS011;12356;49.386;8.688;2022-10-30T17:46:22;12.85;;;4.20;;
24216;SDS011;12356;49.386;8.688;2022-10-30T17:48:53;10.20;;;4.30;;
24216;SDS011;12356;49.386;8.688;2022-10-30T17:51:27;7.63;;;3.80;;
24216;SDS011;12356;49.386;8.688;2022-10-30T17:53:58;12.35;;;4.20;;
24216;SDS011;12356;49.386;8.688;2022-10-30T17:56:29;10.57;;;4.07;;
24216;SDS011;12356;49.386;8.688;2022-10-30T17:59:01;11.95;;;3.92;;
24216;SDS011;12356;49.386;8.688;2022-10-30T18:01:32;11.80;;;4.80;;
24216;SDS011;12356;49.386;8.688;2022-10-30T18:04:13;19.35;;;7.75;;